• Join FlightAware (Why Join?)
  • Login
  • US Flag GB Flag 
20:38 EST


 

Airport Tracker/Info


-or-


 

Live Flight TrackerFlight Track Log ✈ EJA929 ✈ 06-Sep-2013 ✈ KTEB - CYQA

Flight Track Log - Related Links

Times and Time Zones

All times are in EDT time to prevent confusion due to time zone crossing. See the EJA929 flight status page for this flight to view local times or setup timezone preferences in your user account.

Time Position Orientation Groundspeed Altitude Reporting Facility
EDT Latitude Longitude Course Direction KTS MPH feet Rate Location/Type
08:15 40.8667 -74.0500 346° North 182 209 1,200  Level New York TRACON
08:16 40.9167 -74.0667 346° North 207 238 3,100 1,380 Climbing New York TRACON
08:17 40.9167 -74.1500 270° West 247 284 4,000 720 Climbing New York TRACON
08:18 40.9000 -74.2500 258° West 277 319 4,600 2,040 Climbing New York TRACON
08:20 40.9506 -74.3647 300° West 222 255 9,500 2,220 Climbing New York Center
08:21 41.0300 -74.3633 North 247 284 10,600 1,320 Climbing New York Center
08:22 41.1342 -74.3606 North 319 367 12,200 1,800 Climbing New York Center
08:23 41.2439 -74.3803 352° North 362 417 14,300 1,920 Climbing New York Center
08:24 41.3164 -74.4586 321° Northwest 367 422 16,100 1,800 Climbing New York Center
08:25 41.4028 -74.5603 319° Northwest 373 429 18,000 1,800 Climbing New York Center
08:26 41.4789 -74.6531 318° Northwest 373 429 19,800 1,380 Climbing New York Center
08:27 41.6147 -74.8142 318° Northwest 379 436 21,900 1,140 Climbing Boston Center
08:28 41.7042 -74.9150 320° Northwest 402 463 23,100 1,380 Climbing Boston Center
08:29 41.7978 -75.0217 320° Northwest 428 493 24,700 1,740 Climbing Boston Center
08:30 41.8914 -75.1231 321° Northwest 433 498 26,700 1,980 Climbing Boston Center
08:31 41.9867 -75.2306 320° Northwest 440 506 28,700 1,980 Climbing Boston Center
08:32 42.0842 -75.3300 323° Northwest 440 506 30,700 2,160 Climbing Boston Center
08:33 42.2047 -75.4253 330° Northwest 450 518 33,100 1,620 Climbing Boston Center
08:34 42.3025 -75.5142 326° Northwest 461 531 34,000 420 Climbing Boston Center
08:35 42.4231 -75.6044 331° Northwest 474 545 34,000  Level Boston Center
08:36 42.5350 -75.6975 329° Northwest 479 551 34,000  Level Boston Center
08:37 42.6492 -75.7911 329° Northwest 479 551 34,000  Level Boston Center
08:38 42.7589 -75.8819 329° Northwest 479 551 34,000  Level Boston Center
08:39 42.8728 -75.9733 330° Northwest 473 544 34,000  Level Boston Center
08:40 42.9828 -76.0592 330° Northwest 467 537 34,000  Level Boston Center
08:41 43.0861 -76.1478 328° Northwest 455 524 34,000  Level Boston Center
08:42 43.1897 -76.2336 329° Northwest 444 511 34,000  Level Boston Center
08:43 43.2992 -76.3289 328° Northwest 444 511 34,000  Level Boston Center
08:44 43.4042 -76.4244 327° Northwest 449 517 34,000  Level Boston Center
08:45 43.5114 -76.5172 328° Northwest 449 517 34,000  Level Boston Center
08:46 43.6164 -76.6133 326° Northwest 454 522 34,000  Level Boston Center
08:47 43.7250 -76.7244 324° Northwest 449 517 34,000  Level Boston Center
08:49 43.8000 -76.8667 306° West 450 518 34,000  Level Toronto Center
08:50 43.8667 -77.0000 305° West 450 518 34,000  Level Toronto Center
08:51 43.9333 -77.1333 305° West 450 518 34,000  Level Toronto Center
08:52 44.0000 -77.2667 305° West 450 518 34,000 -240 Level Toronto Center
08:53 44.1000 -77.4333 310° West 450 518 33,600 -600 Descending Toronto Center
08:54 44.1500 -77.5667 298° West 450 518 32,800 -840 Descending Toronto Center
08:55 44.2167 -77.7000 305° West 460 529 32,000 -720 Descending Toronto Center
08:56 44.3000 -77.8667 305° West 450 518 31,400 -1,800 Descending Toronto Center
08:57 44.3667 -78.0000 305° West 450 518 28,500 -3,240 Descending Toronto Center
08:58 44.4333 -78.1667 299° West 450 518 25,000 -3,360 Descending Toronto Center
08:59 44.4833 -78.2833 301° West 420 483 21,800 -3,420 Descending Toronto Center
09:00 44.5500 -78.4167 305° West 400 460 18,200 -3,360 Descending Toronto Center
09:01 44.6167 -78.5333 309° West 380 437 15,100 -2,760 Descending Toronto Center
09:03 44.7167 -78.7667 301° West 330 380 10,000 -1,740 Descending Toronto Center
09:04 44.7667 -78.8333 317° Northwest 280 322 10,000 -600 Level Toronto Center
09:05 44.8000 -78.9333 295° West 260 299 8,800 -1,380 Descending Toronto Center
09:06 44.8333 -79.0000 305° West 260 299 7,300 -1,560 Descending Toronto Center
09:07 44.8667 -79.0833 299° West 230 265 5,700 -1,440 Descending Toronto Center
09:08 44.9000 -79.1667 299° West 200 230 4,500 -1,200 Descending Toronto Center
09:10 44.9667 -79.3000 289° West  Level FlightAware Approximate
09:17 44.9747 -79.3033 289° West  Level Estimated
09:18 44.9747 -79.3033 289° West  Level Estimated
09:19 44.9747 -79.3033 289° West  Level Estimated
09:20 44.9747 -79.3033 289° West  Level Estimated